Sacramento, California
Traffic Map
Current Weather Conditions
Sacramento, California
Clear
Clear
19°
Feels Like: 19°
Wind Chill: 19° Ceiling: Unl
Heat Index: 19° Visibility: 10mi
Dew Point: Wind: 6mph
Humidity: 37% Direction: ° ()
Pressure: 30.06in Gusts: 0mph
Raw Report DataKSAC 172353Z VRB05KT 10SM CLR 19/04 A3006 RMK AO2 SLP178 T01940044 10200 20117 $
Traffic Incident Summary
Active as of:
Severity:
Category:
InformationThere was an issue retrieving the traffic information for this location. Please try a different location or try again shortly.
Advertisements